Terminal Aerodrome Forecast
Issued by NWS

Home | Current Version | Previous Version | Text Only | Print | Product List | Glossary On
Versions: 1 2 3 4 5 6 7 8 9 10 11 12 13 14 15 16 17 18 19 20 21 22 23 24
000
FTUS45 KGJT 191131
TAFVEL
TAF
KVEL 191131Z 1912/2012 VRB03KT P6SM SKC
     FM192000 22005KT P6SM SCT110
     FM192300 28009KT P6SM SCT110 SCT200
     FM200200 33007KT P6SM FEW110 BKN200
     FM200600 29003KT P6SM SCT200=

USA.gov is the U.S. government's official web portal to all federal, state and local government web resources and services.